Time;durP1;ratioP1;P1;durP2;ratioP2;P2;SDS_P1;SDS_P2;PMS_P1;PMS_P2;Temp;Humidity;BMP_temperature;BMP_pressure;BME280_temperature;BME280_humidity;BME280_pressure;Samples;Min_cycle;Max_cycle;Signal;HPM_P1;HPM_P2
2022/03/07 00:01:34;;;;;;;14.18;10.77;;;-1.30;99.90;;;;;;5044291;28;20056;-94
2022/03/07 00:04:02;;;;;;;13.27;10.43;;;-1.40;99.90;;;;;;5036944;28;20175;-94
2022/03/07 00:06:29;;;;;;;15.55;10.93;;;-1.30;99.90;;;;;;5036289;28;20148;-93
2022/03/07 00:08:58;;;;;;;15.02;10.63;;;-1.40;99.90;;;;;;5036387;28;20063;-93
2022/03/07 00:11:24;;;;;;;15.60;11.05;;;-1.30;99.90;;;;;;5039034;28;20136;-94
2022/03/07 00:13:51;;;;;;;13.23;11.20;;;-1.30;99.90;;;;;;5040024;28;20076;-94
2022/03/07 00:16:18;;;;;;;14.10;11.32;;;-1.40;99.90;;;;;;5039842;28;20528;-92
2022/03/07 00:18:45;;;;;;;15.10;11.15;;;-1.40;99.90;;;;;;5039917;28;20071;-94
2022/03/07 00:21:12;;;;;;;15.27;11.27;;;-1.40;99.90;;;;;;5039515;28;20128;-94
2022/03/07 00:23:39;;;;;;;11.75;10.27;;;-1.40;99.90;;;;;;5039925;28;20068;-94
2022/03/07 00:26:06;;;;;;;14.85;10.85;;;-1.30;99.90;;;;;;5039750;28;20041;-94
2022/03/07 00:28:34;;;;;;;14.90;12.02;;;-1.30;99.90;;;;;;5039728;28;20139;-94
2022/03/07 00:31:05;;;;;;;12.80;10.82;;;-1.30;99.90;;;;;;5039879;28;20045;-94
2022/03/07 00:33:34;;;;;;;14.60;11.20;;;-1.20;99.90;;;;;;5039107;28;20075;-94
2022/03/07 00:36:00;;;;;;;15.45;11.90;;;-1.20;99.90;;;;;;5039260;28;20083;-93
2022/03/07 00:38:27;;;;;;;13.02;11.10;;;-1.20;99.90;;;;;;5039264;28;20552;-94
2022/03/07 00:40:54;;;;;;;15.55;11.30;;;-1.30;99.90;;;;;;5039158;28;20139;-93
2022/03/07 00:43:21;;;;;;;16.10;11.27;;;-1.30;99.90;;;;;;5039016;28;20144;-93
2022/03/07 00:45:49;;;;;;;13.18;11.15;;;-1.30;99.90;;;;;;5038979;28;20045;-94
2022/03/07 00:48:16;;;;;;;14.32;10.73;;;-1.40;99.90;;;;;;5038774;28;20053;-93
2022/03/07 00:50:44;;;;;;;14.15;11.05;;;-1.40;99.90;;;;;;5039351;28;20135;-93
2022/03/07 00:53:17;;;;;;;15.27;11.40;;;-1.40;99.90;;;;;;5038944;28;20481;-93
2022/03/07 00:55:45;;;;;;;13.63;11.50;;;-1.50;99.90;;;;;;5038942;28;20461;-94
2022/03/07 00:58:12;;;;;;;16.23;12.23;;;-1.50;99.90;;;;;;5038973;28;20140;-93
2022/03/07 01:00:40;;;;;;;16.15;11.35;;;-1.60;99.90;;;;;;5038631;28;20048;-93
2022/03/07 01:03:09;;;;;;;16.13;11.70;;;-1.60;99.90;;;;;;5038879;28;20053;-93
2022/03/07 01:05:38;;;;;;;15.38;11.93;;;-1.50;99.90;;;;;;5038819;28;20080;-93
2022/03/07 01:08:05;;;;;;;14.25;11.43;;;-1.60;99.90;;;;;;5038784;28;20059;-93
2022/03/07 01:10:33;;;;;;;14.40;11.70;;;-1.50;99.90;;;;;;5038444;28;20055;-94
2022/03/07 01:12:59;;;;;;;15.35;11.50;;;-1.50;99.90;;;;;;5038673;28;20073;-93
2022/03/07 01:15:26;;;;;;;16.33;11.65;;;-1.50;99.90;;;;;;5037873;28;20136;-94
2022/03/07 01:17:54;;;;;;;17.90;11.55;;;-1.50;99.90;;;;;;5038583;28;20040;-93
2022/03/07 01:20:21;;;;;;;15.95;11.68;;;-1.50;99.90;;;;;;5038694;28;20088;-93
2022/03/07 01:22:48;;;;;;;15.20;11.23;;;-1.40;99.90;;;;;;5037316;28;20049;-94
2022/03/07 01:25:15;;;;;;;14.52;11.70;;;-1.40;99.90;;;;;;5038390;28;20060;-93
2022/03/07 01:27:42;;;;;;;16.05;11.75;;;-1.50;99.90;;;;;;5037760;28;20420;-93
2022/03/07 01:30:09;;;;;;;14.80;11.40;;;-1.50;99.90;;;;;;5038447;28;20140;-93
2022/03/07 01:32:36;;;;;;;13.30;11.73;;;-1.50;99.90;;;;;;5038305;28;20139;-93
2022/03/07 01:35:04;;;;;;;15.73;11.55;;;-1.40;99.90;;;;;;5038287;28;20098;-93
2022/03/07 01:37:31;;;;;;;14.48;11.95;;;-1.40;99.90;;;;;;5038135;28;20573;-93
2022/03/07 01:39:58;;;;;;;19.50;12.25;;;-1.40;99.90;;;;;;5038066;28;20128;-94
2022/03/07 01:42:25;;;;;;;15.50;11.25;;;-1.40;99.90;;;;;;5037434;28;20511;-93
2022/03/07 01:44:51;;;;;;;15.30;12.23;;;-1.40;99.90;;;;;;5038146;28;20389;-93
2022/03/07 01:47:18;;;;;;;12.82;11.32;;;-1.40;99.90;;;;;;5038179;28;20048;-93
2022/03/07 01:49:45;;;;;;;12.82;10.93;;;-1.30;99.90;;;;;;5037949;28;20053;-93
2022/03/07 01:52:18;;;;;;;14.60;10.48;;;-1.30;99.90;;;;;;5038154;28;20140;-93
2022/03/07 01:54:46;;;;;;;15.35;12.05;;;-1.30;99.90;;;;;;5037774;28;20132;-93
2022/03/07 01:57:13;;;;;;;15.93;12.57;;;-1.40;99.90;;;;;;5037944;28;20052;-92
2022/03/07 01:59:40;;;;;;;16.33;12.00;;;-1.40;99.90;;;;;;5038115;28;20136;-93
2022/03/07 02:02:07;;;;;;;14.68;11.98;;;-1.40;99.90;;;;;;5037859;28;20486;-93
2022/03/07 02:04:37;;;;;;;16.73;11.55;;;-1.40;99.90;;;;;;5037750;28;20052;-93
2022/03/07 02:07:04;;;;;;;14.55;11.63;;;-1.30;99.90;;;;;;5037593;28;20132;-92
2022/03/07 02:09:31;;;;;;;13.90;11.38;;;-1.30;99.90;;;;;;5037465;28;20057;-92
2022/03/07 02:11:58;;;;;;;16.42;12.00;;;-1.40;99.90;;;;;;5037195;28;20140;-94
2022/03/07 02:14:25;;;;;;;17.67;12.27;;;-1.40;99.90;;;;;;5036959;28;20048;-93
2022/03/07 02:16:52;;;;;;;15.23;11.63;;;-1.40;99.90;;;;;;5037467;28;20136;-93
2022/03/07 02:19:19;;;;;;;15.10;12.63;;;-1.40;99.90;;;;;;5040629;28;20052;-92
2022/03/07 02:21:50;;;;;;;13.88;11.73;;;-1.40;99.90;;;;;;5059968;28;20060;-92
2022/03/07 02:24:18;;;;;;;14.68;11.35;;;-1.40;99.90;;;;;;5041355;28;20135;-92
2022/03/07 02:27:00;;;;;;;14.15;11.40;;;-1.40;99.90;;;;;;5037251;28;20549;-93
2022/03/07 02:29:28;;;;;;;15.95;11.68;;;-1.50;99.90;;;;;;5037407;28;20436;-93
2022/03/07 02:31:55;;;;;;;16.27;12.18;;;-1.40;99.90;;;;;;5036975;28;20056;-93
2022/03/07 02:34:21;;;;;;;15.60;12.10;;;-1.50;99.90;;;;;;5036496;28;20401;-93
2022/03/07 02:36:48;;;;;;;14.90;11.90;;;-1.60;99.90;;;;;;5036873;28;20057;-93
2022/03/07 02:39:16;;;;;;;15.80;12.05;;;-1.60;99.90;;;;;;5036819;28;20485;-93
2022/03/07 02:41:43;;;;;;;20.48;12.32;;;-1.50;99.90;;;;;;5036751;28;20477;-93
2022/03/07 02:44:10;;;;;;;12.57;11.25;;;-1.50;99.90;;;;;;5036559;28;20416;-93
2022/03/07 02:46:38;;;;;;;15.45;11.98;;;-1.50;99.90;;;;;;5036505;28;20044;-93
2022/03/07 02:49:05;;;;;;;14.93;11.77;;;-1.50;99.90;;;;;;5036689;28;20543;-93
2022/03/07 02:51:32;;;;;;;15.07;12.05;;;-1.50;99.90;;;;;;5036789;28;20496;-93
2022/03/07 02:53:59;;;;;;;17.13;11.82;;;-1.50;99.90;;;;;;5036702;28;20420;-93
2022/03/07 02:56:26;;;;;;;16.30;12.23;;;-1.60;99.90;;;;;;5036677;28;20052;-92
2022/03/07 02:58:53;;;;;;;15.13;11.55;;;-1.70;99.90;;;;;;5036684;28;20535;-94
2022/03/07 03:01:20;;;;;;;14.57;10.68;;;-1.60;99.90;;;;;;5036268;28;20051;-93
2022/03/07 03:03:47;;;;;;;16.38;10.80;;;-1.50;99.90;;;;;;5036394;28;20049;-93
2022/03/07 03:06:14;;;;;;;24.55;12.00;;;-1.50;99.90;;;;;;5037061;28;20072;-93
2022/03/07 03:08:41;;;;;;;17.63;11.27;;;-1.60;99.90;;;;;;5036619;28;20106;-93
2022/03/07 03:11:08;;;;;;;13.50;10.55;;;-1.50;99.90;;;;;;5036221;28;20140;-93
2022/03/07 03:13:34;;;;;;;13.68;10.77;;;-1.40;99.90;;;;;;5036570;28;20140;-93
2022/03/07 03:16:01;;;;;;;13.18;11.30;;;-1.30;99.90;;;;;;5035934;28;20547;-93
2022/03/07 03:18:28;;;;;;;16.52;11.40;;;-1.30;99.90;;;;;;5036455;28;20110;-93
2022/03/07 03:20:55;;;;;;;15.82;11.07;;;-1.30;99.90;;;;;;5036577;28;20072;-92
2022/03/07 03:23:24;;;;;;;14.25;11.13;;;-1.40;99.90;;;;;;5036336;28;20492;-93
2022/03/07 03:25:53;;;;;;;14.98;10.95;;;-1.30;99.90;;;;;;5036171;28;20110;-93
2022/03/07 03:28:23;;;;;;;13.68;11.02;;;-1.30;99.90;;;;;;5036333;28;20123;-93
2022/03/07 03:30:52;;;;;;;14.23;11.13;;;-1.30;99.90;;;;;;5035841;28;20076;-92
2022/03/07 03:33:19;;;;;;;16.25;12.10;;;-1.30;99.90;;;;;;5036241;28;20138;-93
2022/03/07 03:35:45;;;;;;;13.02;9.98;;;-1.30;99.90;;;;;;5036343;28;20055;-93
2022/03/07 03:38:12;;;;;;;14.95;11.15;;;-1.30;99.90;;;;;;5036110;28;20049;-93
2022/03/07 03:40:39;;;;;;;15.50;11.15;;;-1.30;99.90;;;;;;5035944;28;20136;-93
2022/03/07 03:43:06;;;;;;;17.90;11.35;;;-1.20;99.90;;;;;;5035559;28;20486;-93
2022/03/07 03:45:33;;;;;;;13.35;10.55;;;-1.30;99.90;;;;;;5035298;28;20517;-92
2022/03/07 03:48:00;;;;;;;15.82;10.93;;;-1.40;99.90;;;;;;5035780;28;20055;-93
2022/03/07 03:50:27;;;;;;;16.27;10.80;;;-1.40;99.90;;;;;;5035878;28;20056;-93
2022/03/07 03:52:53;;;;;;;12.82;10.00;;;-1.40;99.90;;;;;;5035876;28;20132;-93
2022/03/07 03:55:21;;;;;;;13.80;10.25;;;-1.40;99.90;;;;;;5036118;28;20049;-93
2022/03/07 03:57:48;;;;;;;14.32;11.35;;;-1.40;99.90;;;;;;5035910;28;20053;-93
2022/03/07 04:00:17;;;;;;;14.60;11.10;;;-1.40;99.90;;;;;;5036142;28;20147;-93
2022/03/07 04:02:44;;;;;;;12.93;10.50;;;-1.50;99.90;;;;;;5035980;28;20052;-93
2022/03/07 04:05:12;;;;;;;18.15;11.32;;;-1.40;99.90;;;;;;5036079;28;20049;-93
2022/03/07 04:07:40;;;;;;;11.52;10.20;;;-1.40;99.90;;;;;;5035943;28;20075;-93
2022/03/07 04:10:08;;;;;;;12.55;10.57;;;-1.40;99.90;;;;;;5035674;28;20049;-93
2022/03/07 04:12:34;;;;;;;14.10;10.60;;;-1.30;99.90;;;;;;5035660;28;20071;-92
2022/03/07 04:15:01;;;;;;;13.27;10.40;;;-1.30;99.90;;;;;;5035833;28;20119;-93
2022/03/07 04:17:28;;;;;;;15.13;11.27;;;-1.30;99.90;;;;;;5036034;28;20056;-93
2022/03/07 04:19:55;;;;;;;12.25;10.65;;;-1.30;99.90;;;;;;5035898;28;20047;-92
2022/03/07 04:22:22;;;;;;;15.35;10.38;;;-1.30;99.90;;;;;;5035790;28;20099;-92
2022/03/07 04:24:48;;;;;;;14.70;11.35;;;-1.30;99.90;;;;;;5035147;28;20132;-92
2022/03/07 04:27:15;;;;;;;14.35;10.93;;;-1.30;99.90;;;;;;5035475;28;20131;-93
2022/03/07 04:29:42;;;;;;;14.40;9.85;;;-1.30;99.90;;;;;;5035784;28;20074;-93
2022/03/07 04:32:08;;;;;;;13.40;10.48;;;-1.30;99.90;;;;;;5035521;28;20461;-93
2022/03/07 04:34:35;;;;;;;14.13;10.48;;;-1.30;99.90;;;;;;5035653;28;20171;-93
2022/03/07 04:37:02;;;;;;;13.13;10.68;;;-1.30;99.90;;;;;;5035705;28;20086;-93
2022/03/07 04:39:29;;;;;;;16.80;10.68;;;-1.30;99.90;;;;;;5035564;28;20055;-93
2022/03/07 04:41:56;;;;;;;13.35;10.10;;;-1.40;99.90;;;;;;5050614;28;20154;-92
2022/03/07 04:44:22;;;;;;;15.10;10.43;;;-1.40;99.90;;;;;;5057299;28;20064;-92
2022/03/07 04:46:49;;;;;;;12.80;9.57;;;-1.40;99.90;;;;;;5053452;28;20049;-92
2022/03/07 04:49:16;;;;;;;15.35;10.30;;;-1.40;99.90;;;;;;5036067;28;20049;-93
2022/03/07 04:51:45;;;;;;;12.70;10.05;;;-1.40;99.90;;;;;;5035352;28;20045;-92
2022/03/07 04:54:14;;;;;;;13.25;10.45;;;-1.40;99.90;;;;;;5035546;28;20076;-92
2022/03/07 04:56:43;;;;;;;17.00;10.85;;;-1.40;99.90;;;;;;5037084;28;20052;-93
2022/03/07 04:59:12;;;;;;;13.55;9.63;;;-1.50;99.90;;;;;;5039086;28;20052;-92
2022/03/07 05:01:39;;;;;;;14.00;10.30;;;-1.30;99.90;;;;;;5038856;28;20085;-92
2022/03/07 05:04:07;;;;;;;16.90;10.55;;;-1.40;99.90;;;;;;5039267;28;20140;-93
2022/03/07 05:06:34;;;;;;;17.83;10.40;;;-1.50;99.90;;;;;;5038653;28;20541;-92
2022/03/07 05:09:01;;;;;;;14.57;10.30;;;-1.40;99.90;;;;;;5038609;28;20136;-92
2022/03/07 05:11:28;;;;;;;13.30;10.20;;;-1.40;99.90;;;;;;5038896;28;20132;-92
2022/03/07 05:13:54;;;;;;;12.93;10.32;;;-1.30;99.90;;;;;;5038447;28;20057;-93
2022/03/07 05:16:21;;;;;;;14.63;9.90;;;-1.40;99.90;;;;;;5038687;28;20449;-92
2022/03/07 05:18:49;;;;;;;13.48;10.10;;;-1.30;99.90;;;;;;5038629;28;20140;-93
2022/03/07 05:21:16;;;;;;;12.20;10.05;;;-1.30;99.90;;;;;;5038263;28;20102;-93
2022/03/07 05:23:42;;;;;;;13.50;10.13;;;-1.30;99.90;;;;;;5037254;28;20505;-92
2022/03/07 05:26:09;;;;;;;15.68;10.63;;;-1.30;99.90;;;;;;5038291;28;20059;-92
2022/03/07 05:28:36;;;;;;;14.98;10.25;;;-1.20;99.90;;;;;;5038310;28;20048;-92
2022/03/07 05:31:03;;;;;;;16.98;10.43;;;-1.30;99.90;;;;;;5038166;28;20055;-93
2022/03/07 05:33:30;;;;;;;13.02;10.35;;;-1.20;99.90;;;;;;5038431;28;20080;-92
2022/03/07 05:35:56;;;;;;;17.90;10.20;;;-1.20;99.90;;;;;;5038490;28;20055;-92
2022/03/07 05:38:23;;;;;;;12.60;9.60;;;-1.30;99.90;;;;;;5038139;28;20462;-92
2022/03/07 05:40:50;;;;;;;17.00;10.00;;;-1.20;99.90;;;;;;5038153;28;20053;-93
2022/03/07 05:43:17;;;;;;;17.90;9.43;;;-1.20;99.90;;;;;;5038172;28;20462;-93
2022/03/07 05:45:43;;;;;;;18.33;9.55;;;-1.10;99.90;;;;;;5038343;28;20136;-92
2022/03/07 05:48:11;;;;;;;13.93;9.90;;;-1.20;99.90;;;;;;5037680;28;20048;-92
2022/03/07 05:50:37;;;;;;;13.60;10.07;;;-1.20;99.90;;;;;;5046546;28;20079;-93
2022/03/07 05:53:04;;;;;;;14.13;10.45;;;-1.20;99.90;;;;;;5044340;28;20116;-92
2022/03/07 05:55:31;;;;;;;23.25;9.70;;;-1.20;99.90;;;;;;5038538;28;20493;-92
2022/03/07 05:58:00;;;;;;;16.10;10.27;;;-1.20;99.90;;;;;;5038496;28;20135;-92
2022/03/07 06:00:28;;;;;;;16.30;9.95;;;-1.20;99.90;;;;;;5038246;28;20069;-93
2022/03/07 06:02:56;;;;;;;19.63;9.15;;;-1.20;99.90;;;;;;5038569;28;20485;-87
2022/03/07 06:05:23;;;;;;;18.90;10.23;;;-1.10;99.90;;;;;;5038483;28;20471;-93
2022/03/07 06:07:50;;;;;;;71.60;39.63;;;-1.20;99.90;;;;;;5038106;28;20136;-93
2022/03/07 06:10:16;;;;;;;15.70;10.70;;;-1.30;99.90;;;;;;5038681;28;20128;-93
2022/03/07 06:12:43;;;;;;;20.33;13.55;;;-1.30;99.90;;;;;;5038311;28;20458;-93
2022/03/07 06:15:16;;;;;;;25.27;15.77;;;-1.40;99.90;;;;;;5039055;28;20562;-93
2022/03/07 06:17:54;;;;;;;51.20;28.70;;;-1.30;99.90;;;;;;5038059;28;20086;-93
2022/03/07 06:20:23;;;;;;;72.05;38.00;;;-1.20;99.90;;;;;;5038272;28;20053;-93
2022/03/07 06:22:50;;;;;;;56.55;30.15;;;-1.10;99.90;;;;;;5038596;28;20069;-93
2022/03/07 06:25:18;;;;;;;24.88;11.73;;;-1.00;99.90;;;;;;5021989;28;20117;-93
2022/03/07 06:27:45;;;;;;;19.80;12.02;;;-1.00;99.90;;;;;;5038059;28;20048;-93
2022/03/07 06:30:12;;;;;;;12.32;8.73;;;-1.10;99.90;;;;;;5037939;28;20045;-94
2022/03/07 06:32:39;;;;;;;16.50;10.45;;;-1.00;99.90;;;;;;5038068;28;20063;-93
2022/03/07 06:35:12;;;;;;;14.07;9.65;;;-1.00;99.90;;;;;;5038507;28;20045;-93
2022/03/07 06:37:49;;;;;;;15.15;9.95;;;-0.90;99.90;;;;;;5038252;28;20451;-93
2022/03/07 06:40:17;;;;;;;19.15;14.48;;;-1.00;99.90;;;;;;5037821;28;20602;-93
2022/03/07 06:42:46;;;;;;;25.85;9.73;;;-1.00;99.90;;;;;;5037701;28;20140;-94
2022/03/07 06:45:16;;;;;;;14.55;9.23;;;-1.00;99.90;;;;;;5037707;28;20091;-94
2022/03/07 06:47:44;;;;;;;18.42;9.35;;;-0.90;99.90;;;;;;5037925;28;20059;-93
2022/03/07 06:50:12;;;;;;;38.60;9.60;;;-0.80;99.90;;;;;;5037802;28;20072;-94
2022/03/07 06:52:39;;;;;;;28.35;9.80;;;-0.80;99.90;;;;;;5037755;28;20136;-93
2022/03/07 06:55:06;;;;;;;12.40;8.85;;;-0.70;99.90;;;;;;5037675;28;20055;-92
2022/03/07 06:57:33;;;;;;;21.63;9.00;;;-0.60;99.90;;;;;;5037713;28;20059;-93
2022/03/07 07:00:00;;;;;;;19.70;8.73;;;-0.50;99.90;;;;;;5037626;28;20071;-92
2022/03/07 07:02:27;;;;;;;20.50;7.82;;;-0.50;99.90;;;;;;5037572;28;20048;-93
2022/03/07 07:04:54;;;;;;;61.55;9.93;;;-0.30;99.90;;;;;;5037396;28;20112;-93
2022/03/07 07:07:20;;;;;;;17.10;7.82;;;-0.30;99.90;;;;;;5038543;28;20132;-94
2022/03/07 07:09:47;;;;;;;9.68;6.55;;;-0.30;99.90;;;;;;5042492;28;20080;-92
2022/03/07 07:12:14;;;;;;;9.75;7.30;;;-0.20;99.90;;;;;;5050074;28;20048;-92
2022/03/07 07:14:41;;;;;;;14.45;7.72;;;-0.10;99.90;;;;;;5037273;28;20135;-93
2022/03/07 07:17:07;;;;;;;12.60;8.00;;;0.00;99.90;;;;;;5037502;28;20051;-92
2022/03/07 07:19:34;;;;;;;10.55;7.22;;;0.10;99.90;;;;;;5036688;28;20434;-92
2022/03/07 07:22:01;;;;;;;12.63;7.00;;;0.20;99.90;;;;;;5036590;28;20049;-93
2022/03/07 07:24:27;;;;;;;13.35;7.45;;;0.10;99.90;;;;;;5036898;28;20128;-92
2022/03/07 07:26:54;;;;;;;12.77;7.30;;;0.30;99.90;;;;;;5037438;28;20049;-92
2022/03/07 07:29:22;;;;;;;9.05;6.93;;;0.40;99.90;;;;;;5036513;28;20564;-93
2022/03/07 07:31:51;;;;;;;10.73;6.18;;;0.50;99.90;;;;;;5036743;28;20102;-93
2022/03/07 07:34:19;;;;;;;10.35;6.55;;;0.80;99.90;;;;;;5036689;28;20131;-93
2022/03/07 07:36:47;;;;;;;9.93;7.88;;;1.00;99.90;;;;;;5037097;28;20098;-92
2022/03/07 07:39:14;;;;;;;21.77;10.88;;;0.90;99.90;;;;;;5036595;28;20063;-92
2022/03/07 07:41:41;;;;;;;10.45;7.05;;;0.90;99.90;;;;;;5036376;28;20493;-92
2022/03/07 07:44:09;;;;;;;24.77;8.75;;;1.10;99.90;;;;;;5036071;28;20061;-93
2022/03/07 07:46:42;;;;;;;20.13;6.57;;;1.20;99.90;;;;;;5038174;28;20519;-95
2022/03/07 07:49:09;;;;;;;11.07;6.80;;;1.30;99.90;;;;;;5021910;28;20051;-94
2022/03/07 07:51:37;;;;;;;20.65;7.63;;;1.10;99.90;;;;;;5037984;28;20045;-93
2022/03/07 07:54:05;;;;;;;10.18;6.63;;;1.00;99.90;;;;;;5036870;28;20165;-92
2022/03/07 07:56:32;;;;;;;12.55;7.10;;;1.10;99.90;;;;;;5036430;28;20075;-93
2022/03/07 07:58:59;;;;;;;10.88;7.40;;;1.20;99.90;;;;;;5036538;28;20135;-93
2022/03/07 08:01:26;;;;;;;9.88;5.88;;;1.00;99.90;;;;;;5036073;28;20057;-92
2022/03/07 08:03:53;;;;;;;8.25;5.90;;;1.40;99.90;;;;;;5035910;28;20045;-92
2022/03/07 08:06:20;;;;;;;11.80;6.05;;;1.80;99.90;;;;;;5035947;28;20057;-92
2022/03/07 08:08:47;;;;;;;7.63;5.00;;;2.50;99.90;;;;;;5035868;28;20053;-91
2022/03/07 08:11:14;;;;;;;13.25;5.60;;;2.80;99.90;;;;;;5035541;28;20128;-91
2022/03/07 08:13:40;;;;;;;11.43;7.38;;;2.70;99.90;;;;;;5035767;28;20059;-90
2022/03/07 08:16:07;;;;;;;8.88;5.70;;;2.80;99.90;;;;;;5035389;28;20079;-90
2022/03/07 08:18:34;;;;;;;6.85;5.35;;;3.20;99.90;;;;;;5035706;28;20079;-90
2022/03/07 08:21:01;;;;;;;13.50;5.63;;;3.40;99.90;;;;;;5035556;28;20137;-89
2022/03/07 08:23:28;;;;;;;9.15;5.35;;;4.30;99.90;;;;;;5053128;28;20408;-89
2022/03/07 08:25:55;;;;;;;24.67;6.35;;;5.10;98.30;;;;;;5035431;28;20113;-89
2022/03/07 08:28:22;;;;;;;15.07;9.35;;;5.80;96.40;;;;;;5035340;28;20055;-88
2022/03/07 08:30:49;;;;;;;9.52;5.75;;;6.30;92.30;;;;;;5035436;28;20110;-89
2022/03/07 08:33:16;;;;;;;6.80;6.15;;;6.70;89.70;;;;;;5038975;28;20111;-89
2022/03/07 08:35:43;;;;;;;9.85;6.60;;;6.80;86.90;;;;;;5039314;28;20048;-88
2022/03/07 08:38:09;;;;;;;7.25;4.85;;;6.60;81.50;;;;;;5039095;28;20434;-88
2022/03/07 08:40:36;;;;;;;3.83;3.47;;;7.30;79.80;;;;;;5038812;28;20063;-88
2022/03/07 08:43:03;;;;;;;6.43;5.80;;;7.00;79.10;;;;;;5038615;28;20052;-88
2022/03/07 08:45:30;;;;;;;5.90;5.38;;;8.80;73.60;;;;;;5038565;28;20051;-88
2022/03/07 08:48:17;;;;;;;4.80;3.58;;;8.60;68.90;;;;;;5041781;28;20045;-88
2022/03/07 08:50:48;;;;;;;21.95;14.52;;;8.90;67.60;;;;;;5038627;28;20110;-88
2022/03/07 08:53:16;;;;;;;9.73;6.53;;;8.80;65.60;;;;;;5038816;28;20075;-87
2022/03/07 08:55:43;;;;;;;8.05;4.72;;;8.10;63.90;;;;;;5038866;28;20614;-87
2022/03/07 08:58:16;;;;;;;;;;;8.50;67.10;;;;;;5040010;28;20064;-87
2022/03/07 09:00:43;;;;;;;3.78;2.90;;;9.30;63.50;;;;;;5038410;28;19924;-88
2022/03/07 09:03:09;;;;;;;3.47;2.75;;;9.10;62.50;;;;;;5038725;28;20049;-88
2022/03/07 09:05:36;;;;;;;6.13;2.60;;;9.40;63.50;;;;;;5038714;28;20111;-88
2022/03/07 09:08:04;;;;;;;4.25;2.67;;;9.80;62.00;;;;;;5055700;28;20048;-88
2022/03/07 09:10:30;;;;;;;12.05;3.20;;;8.60;61.20;;;;;;5038462;28;20049;-87
2022/03/07 09:12:57;;;;;;;5.43;2.50;;;8.30;62.60;;;;;;5038282;28;20045;-88
2022/03/07 09:15:24;;;;;;;17.13;3.70;;;9.00;62.80;;;;;;5038044;28;20132;-89
2022/03/07 09:17:51;;;;;;;9.57;2.47;;;9.30;61.30;;;;;;5055901;28;20580;-87
2022/03/07 09:20:19;;;;;;;3.85;2.60;;;10.50;58.70;;;;;;5038007;28;20053;-87
2022/03/07 09:22:46;;;;;;;3.42;2.22;;;11.30;57.60;;;;;;5038089;28;20057;-87
2022/03/07 09:25:14;;;;;;;4.53;2.35;;;13.10;55.30;;;;;;5037819;28;20131;-87
2022/03/07 09:27:45;;;;;;;3.40;2.35;;;11.70;53.50;;;;;;5055626;28;20056;-87
2022/03/07 09:30:13;;;;;;;10.82;2.83;;;12.70;54.90;;;;;;5037676;28;20051;-87
2022/03/07 09:32:40;;;;;;;3.40;3.17;;;12.50;53.50;;;;;;5037629;28;20048;-85
2022/03/07 09:35:07;;;;;;;2.83;2.30;;;13.00;52.20;;;;;;5055270;28;20203;-86
2022/03/07 09:37:34;;;;;;;3.92;2.10;;;13.10;51.10;;;;;;5037610;28;20117;-87
2022/03/07 09:40:02;;;;;;;46.97;32.40;;;12.40;51.10;;;;;;5037878;28;20455;-87
2022/03/07 09:42:29;;;;;;;4.05;2.85;;;12.10;51.50;;;;;;5036845;28;20494;-87
2022/03/07 09:44:56;;;;;;;21.95;4.30;;;11.30;53.40;;;;;;5054757;28;20123;-87
2022/03/07 09:47:22;;;;;;;6.07;3.40;;;10.50;55.00;;;;;;5037906;28;20045;-86
2022/03/07 09:49:51;;;;;;;5.20;3.20;;;8.60;57.90;;;;;;5037297;28;20064;-87
2022/03/07 09:52:18;;;;;;;6.03;4.70;;;9.10;59.10;;;;;;5037237;28;20056;-87
2022/03/07 09:54:45;;;;;;;24.00;12.65;;;8.50;59.80;;;;;;5055081;28;20049;-87
2022/03/07 09:57:12;;;;;;;12.32;5.82;;;8.30;59.80;;;;;;5037239;28;20519;-87
2022/03/07 09:59:38;;;;;;;6.55;4.30;;;8.40;63.70;;;;;;5055206;28;20052;-87
2022/03/07 10:02:12;;;;;;;12.82;8.20;;;9.90;60.20;;;;;;5037422;28;20052;-88
2022/03/07 10:04:42;;;;;;;4.75;3.63;;;10.00;57.00;;;;;;5037690;28;20057;-86
2022/03/07 10:07:10;;;;;;;24.75;12.52;;;10.50;56.80;;;;;;5037215;28;20049;-88
2022/03/07 10:09:37;;;;;;;3.17;2.95;;;10.80;55.50;;;;;;5055029;28;20049;-87
2022/03/07 10:12:04;;;;;;;18.27;12.30;;;11.60;54.60;;;;;;5054525;28;20051;-87
2022/03/07 10:14:42;;;;;;;3.28;2.97;;;12.30;52.50;;;;;;5037037;28;20049;-87
2022/03/07 10:17:24;;;;;;;4.65;3.90;;;12.90;53.40;;;;;;5037253;28;20088;-88
2022/03/07 10:19:53;;;;;;;2.97;2.67;;;14.30;50.80;;;;;;5054423;28;20068;-87
2022/03/07 10:22:24;;;;;;;2.17;2.08;;;14.00;50.40;;;;;;5037006;28;20128;-87
2022/03/07 10:25:08;;;;;;;5.25;2.58;;;14.60;48.80;;;;;;5037053;28;20045;-88
2022/03/07 10:27:45;;;;;;;11.13;2.85;;;13.30;49.10;;;;;;5037209;28;20089;-87
2022/03/07 10:30:15;;;;;;;5.57;1.95;;;13.00;51.50;;;;;;5036702;28;20078;-88
2022/03/07 10:32:43;;;;;;;9.88;2.83;;;12.80;50.80;;;;;;5036671;28;20127;-86
2022/03/07 10:35:27;;;;;;;13.02;3.08;;;11.60;51.80;;;;;;5036559;28;20049;-90
2022/03/07 10:38:11;;;;;;;3.05;2.33;;;11.20;53.00;;;;;;5036550;28;20056;-87
2022/03/07 10:40:52;;;;;;;19.52;3.90;;;11.10;54.30;;;;;;5036568;28;20063;-87
2022/03/07 10:43:19;;;;;;;2.20;1.98;;;12.20;52.50;;;;;;5036796;28;20049;-87
2022/03/07 10:45:58;;;;;;;6.82;2.40;;;13.90;51.30;;;;;;5036853;28;20079;-87
2022/03/07 10:48:27;;;;;;;4.88;2.17;;;13.80;50.10;;;;;;5036519;28;20055;-88
2022/03/07 10:50:58;;;;;;;9.98;2.50;;;15.30;48.50;;;;;;5036384;28;20063;-87
2022/03/07 10:53:26;;;;;;;6.03;2.20;;;15.50;46.70;;;;;;5036259;28;20072;-87
2022/03/07 10:55:56;;;;;;;9.02;2.67;;;14.50;47.90;;;;;;5036379;28;20095;-87
2022/03/07 10:58:25;;;;;;;4.50;4.00;;;14.40;49.20;;;;;;5036491;28;20083;-88
2022/03/07 11:00:55;;;;;;;5.25;4.47;;;15.10;48.30;;;;;;5036057;28;20132;-86
2022/03/07 11:03:30;;;;;;;2.88;1.95;;;14.00;49.90;;;;;;5036592;28;20116;-87
2022/03/07 11:05:59;;;;;;;5.70;2.30;;;14.60;51.40;;;;;;5053643;28;20052;-87
2022/03/07 11:08:27;;;;;;;18.45;2.60;;;14.80;48.90;;;;;;5053650;28;20052;-88
2022/03/07 11:10:56;;;;;;;7.50;2.08;;;14.30;46.70;;;;;;5036174;28;20076;-88
2022/03/07 11:13:26;;;;;;;8.45;2.40;;;14.90;47.70;;;;;;5036126;28;20128;-89
2022/03/07 11:16:04;;;;;;;5.38;2.10;;;15.30;46.40;;;;;;5036143;28;20049;-87
2022/03/07 11:18:33;;;;;;;3.10;2.00;;;15.00;47.50;;;;;;5053999;28;20516;-88
2022/03/07 11:21:02;;;;;;;5.88;2.00;;;14.80;47.00;;;;;;5036023;28;20462;-88
2022/03/07 11:23:30;;;;;;;3.60;2.33;;;14.60;48.40;;;;;;5035846;28;20049;-90
2022/03/07 11:25:58;;;;;;;5.68;2.92;;;15.50;46.70;;;;;;5036002;28;20110;-87
2022/03/07 11:28:28;;;;;;;3.55;2.40;;;15.50;47.90;;;;;;5036069;28;20500;-88
2022/03/07 11:30:55;;;;;;;2.30;2.10;;;16.40;45.70;;;;;;5035484;28;20057;-87
2022/03/07 11:33:33;;;;;;;6.68;2.40;;;17.20;45.90;;;;;;5036430;28;20536;-87
2022/03/07 11:36:05;;;;;;;10.02;2.60;;;15.60;44.60;;;;;;5036239;28;20421;-87
2022/03/07 11:38:32;;;;;;;2.38;2.15;;;14.10;47.70;;;;;;5035940;28;20055;-86
2022/03/07 11:41:10;;;;;;;9.40;2.05;;;13.60;48.40;;;;;;5052923;28;20452;-87
2022/03/07 11:43:48;;;;;;;2.35;1.98;;;13.70;48.10;;;;;;5035542;28;20148;-88
2022/03/07 11:46:24;;;;;;;4.07;2.13;;;13.30;48.40;;;;;;5036090;28;20053;-87
2022/03/07 11:48:51;;;;;;;2.33;1.70;;;13.70;49.10;;;;;;5035605;28;20045;-87
2022/03/07 11:51:20;;;;;;;1.95;1.80;;;13.40;48.40;;;;;;5035353;28;20053;-87
2022/03/07 11:53:48;;;;;;;2.25;2.03;;;14.20;47.90;;;;;;5052861;28;20409;-88
2022/03/07 11:56:20;;;;;;;6.88;2.03;;;14.40;46.90;;;;;;5052632;28;20048;-88
2022/03/07 11:58:53;;;;;;;5.35;1.60;;;13.90;47.40;;;;;;5052946;28;20053;-89
2022/03/07 12:01:27;;;;;;;1.92;1.40;;;13.70;48.90;;;;;;5050527;28;20061;-88
2022/03/07 12:03:54;;;;;;;1.48;1.33;;;13.10;47.90;;;;;;5053095;28;20045;-89
2022/03/07 12:06:22;;;;;;;4.97;1.60;;;13.70;48.30;;;;;;5036103;28;20102;-88
2022/03/07 12:08:54;;;;;;;2.92;2.30;;;12.90;48.80;;;;;;5039513;28;20528;-88
2022/03/07 12:11:33;;;;;;;1.90;1.80;;;12.70;49.80;;;;;;5052298;28;20136;-88
2022/03/07 12:14:07;;;;;;;1.70;1.52;;;12.10;50.60;;;;;;5057084;28;20140;-88
2022/03/07 12:16:37;;;;;;;3.95;1.73;;;12.30;51.50;;;;;;5039307;28;20055;-88
2022/03/07 12:19:09;;;;;;;7.25;2.08;;;12.80;50.30;;;;;;5056895;28;20071;-88
2022/03/07 12:21:41;;;;;;;6.03;2.10;;;11.80;51.40;;;;;;5038703;28;20071;-89
2022/03/07 12:24:09;;;;;;;1.73;1.50;;;11.60;52.90;;;;;;5039164;28;20052;-88
2022/03/07 12:26:48;;;;;;;2.55;1.88;;;12.60;51.20;;;;;;5056419;28;20043;-89
2022/03/07 12:29:16;;;;;;;3.10;1.90;;;12.80;50.40;;;;;;5039367;28;20413;-89
2022/03/07 12:31:58;;;;;;;2.08;1.98;;;13.90;47.60;;;;;;5039612;28;20141;-88
2022/03/07 12:34:30;;;;;;;1.80;1.70;;;13.70;48.60;;;;;;5056552;28;20066;-88
2022/03/07 12:37:03;;;;;;;2.92;2.05;;;15.50;47.60;;;;;;5039210;28;20132;-88
2022/03/07 12:39:52;;;;;;;2.08;1.85;;;15.40;46.80;;;;;;5039209;28;20059;-88
2022/03/07 12:42:27;;;;;;;6.80;2.10;;;13.30;49.30;;;;;;5038425;28;20150;-88
2022/03/07 12:44:59;;;;;;;2.33;2.00;;;12.60;51.20;;;;;;5037795;28;20044;-87